Latest Coastal Weather Observations for Cerberus

IDV60701

Issued at 4:31 pm EST Saturday 27 August 2016 (issued every 10 minutes, with the page automatically refreshed every 10 minutes)

About coastal observations | Map of coastal stations | Coastal observations for VIC | Marine services | Other Formats
Station Details ID: 086361 Name: CERBERUS Lat: -38.36 Lon: 145.18 Height: 12.69 m
Data from the previous 72 hours. | See also: Recent months at Cerberus
Date/Time
EST
Temp
°C
Wind Pressure Rain since
9am
mm
Weather Cloud Vis
km
Sea
Height
m
Swell
Dir  Spd
kts
Gust
kts
hPa Trend Height
m
Period
s
Dir
27/04:30pm 13.4 NW 5 12 1017.5 - 0.0 - - - - - - -
27/04:00pm 13.2 NW 10 15 1017.9 - 0.0 - - - - - - -
27/03:30pm 14.1 NW 9 15 1017.6 - 0.0 - - - - - - -
27/03:00pm 14.5 NNW 9 17 1018.0 - 0.0 - - - - - - -
27/02:30pm 13.6 NNW 7 13 1018.5 - 0.0 - - - - - - -
27/02:00pm 13.1 NW 8 13 1019.0 - 0.0 - - - - - - -
27/01:30pm 12.7 NW 6 10 1019.1 - 0.0 - - - - - - -
27/01:00pm 13.0 NW 12 19 1019.4 - 0.0 - - - - - - -
27/12:30pm 12.9 NW 12 20 1020.0 - 0.0 - - - - - - -
27/12:00pm 12.3 NW 14 21 1020.4 - 0.0 - - - - - - -
27/11:30am 12.4 NW 13 22 1021.0 - 0.0 - - - - - - -
27/11:00am 12.1 NW 13 20 1021.1 - 0.0 - - - - - - -
27/10:30am 12.0 NW 12 19 1021.2 - 0.0 - - - - - - -
27/10:00am 12.1 NW 13 20 1021.3 - 0.0 - - - - - - -
27/09:30am 11.1 NW 8 13 1021.2 - 0.0 - - - - - - -
27/09:00am 10.4 NNW 4 8 1021.3 - 0.0 - - - - - - -
27/08:30am 9.9 NW 5 8 1021.6 - 0.0 - - - - - - -
27/08:00am 9.9 NW 8 13 1021.6 - 0.0 - - - - - - -
27/07:30am 8.8 NW 5 10 1021.4 - 0.0 - - - - - - -
27/07:00am 8.2 CALM 0 0 1021.4 - 0.0 - - - - - - -
27/06:30am 7.9 WNW 3 7 1021.1 - 0.0 - - - - - - -
27/06:00am 7.1 NW 4 6 1020.8 - 0.0 - - - - - - -
27/05:30am 8.2 NW 2 6 1020.6 - 0.0 - - - - - - -
27/05:00am 7.9 NW 1 7 1020.4 - 0.0 - - - - - - -
27/04:30am 7.6 NW 1 5 1020.2 - 0.0 - - - - - - -
27/04:00am 7.4 CALM 0 5 1020.3 - 0.0 - - - - - - -
27/03:30am 7.6 CALM 0 0 1020.2 - 0.0 - - - - - - -
27/03:00am 8.1 NW 4 8 1020.4 - 0.0 - - - - - - -
27/02:30am 8.2 NNW 1 7 1020.5 - 0.0 - - - - - - -
27/02:00am 8.8 NW 3 9 1020.7 - 0.0 - - - - - - -
27/01:30am 7.8 NW 1 5 1020.9 - 0.0 - - - - - - -
27/01:00am 8.3 NW 1 7 1021.0 - 0.0 - - - - - - -
27/12:30am 8.0 CALM 0 5 1021.3 - 0.0 - - - - - - -
27/12:00am 8.1 CALM 0 5 1021.4 - 0.0 - - - - - - -
 
Date/Time
EST
Temp
°C
Wind Pressure Rain since
9am
mm
Weather Cloud Vis
km
Sea
Height
m
Swell
Dir  Spd
kts
Gust
kts
hPa Trend Height
m
Period
s
Dir
26/11:30pm 9.3 NW 5 7 1021.4 - 0.0 - - - - - - -
26/11:00pm 9.2 NW 2 6 1021.4 - 0.0 - - - - - - -
26/10:30pm 9.7 NW 2 7 1021.5 - 0.0 - - - - - - -
26/10:00pm 10.9 NW 6 11 1021.3 - 0.0 - - - - - - -
26/09:30pm 11.2 NW 9 13 1021.2 - 0.0 - - - - - - -
26/09:00pm 11.3 NW 9 14 1021.1 - 0.0 - - - - - - -
26/08:30pm 11.3 NW 6 12 1021.0 - 0.0 - - - - - - -
26/08:00pm 11.5 NW 9 15 1021.0 - 0.0 - - - - - - -
26/07:30pm 11.5 NW 9 14 1020.8 - 0.0 - - - - - - -
26/07:00pm 11.1 NW 7 12 1020.7 - 0.0 - - - - - - -
26/06:30pm 10.8 NW 1 6 1020.7 - 0.0 - - - - - - -
26/06:00pm 10.9 NW 5 9 1020.5 - 0.0 - - - - - - -
26/05:30pm 11.7 WNW 7 11 1020.2 - 0.0 - - - - - - -
26/05:00pm 11.9 WNW 6 11 1020.2 - 0.0 - - - - - - -
26/04:30pm 11.9 WNW 7 12 1020.1 - 0.0 - - - - - - -
26/04:00pm 12.1 WNW 7 13 1019.8 - 0.0 - - - - - - -
26/03:30pm 12.1 WNW 9 13 1019.8 - 0.0 - - - - - - -
26/03:00pm 12.4 NW 8 13 1019.8 - 0.0 - - - - - - -
26/02:30pm 12.9 WNW 8 13 1019.8 - 0.0 - - - - - - -
26/02:00pm 12.9 WNW 9 14 1020.1 - 0.0 - - - - - - -
26/01:30pm 11.9 NW 9 14 1020.3 - 0.0 - - - - - - -
26/01:00pm 12.4 WNW 10 16 1020.4 - 0.0 - - - - - - -
26/12:30pm 12.1 WNW 10 16 1020.8 - 0.0 - - - - - - -
26/12:00pm 12.8 WNW 10 14 1021.1 - 0.0 - - - - - - -
26/11:30am 12.8 W 10 17 1021.2 - 0.0 - - - - - - -
26/11:00am 12.7 WNW 9 15 1021.2 - 0.0 - - - - - - -
26/10:30am 11.2 WNW 8 12 1021.3 - 0.0 - - - - - - -
26/10:00am 11.0 WNW 7 12 1021.1 - 0.0 - - - - - - -
26/09:30am 10.4 WNW 8 11 1021.3 - 0.0 - - - - - - -
26/09:00am 10.1 WNW 7 12 1021.3 - 2.0 - - - - - - -
26/08:30am 9.8 WNW 7 11 1021.1 - 2.0 - - - - - - -
26/08:00am 8.8 NW 4 9 1021.0 - 2.0 - - - - - - -
26/07:30am 8.3 WNW 5 8 1020.8 - 2.0 - - - - - - -
26/07:00am 8.3 WNW 6 10 1020.5 - 2.0 - - - - - - -
26/06:30am 7.5 NW 2 7 1020.1 - 1.8 - - - - - - -
26/06:00am 8.0 NW 4 7 1020.0 - 1.8 - - - - - - -
26/05:30am 8.3 NW 1 7 1019.6 - 1.8 - - - - - - -
26/05:00am 8.4 WNW 5 8 1019.5 - 1.8 - - - - - - -
26/04:30am 7.9 CALM 0 5 1019.1 - 1.8 - - - - - - -
26/04:00am 8.4 CALM 0 4 1019.0 - 1.8 - - - - - - -
26/03:30am 7.9 CALM 0 4 1019.0 - 1.8 - - - - - - -
26/03:00am 6.8 WNW 3 6 1019.0 - 1.8 - - - - - - -
26/02:30am 4.5 CALM 0 0 1019.0 - 1.8 - - - - - - -
26/02:00am 4.0 CALM 0 0 1019.1 - 1.8 - - - - - - -
26/01:30am 5.0 CALM 0 0 1019.2 - 1.8 - - - - - - -
26/01:00am 5.9 CALM 0 0 1019.2 - 1.8 - - - - - - -
26/12:30am 6.6 CALM 0 4 1019.1 - 1.8 - - - - - - -
26/12:00am 8.4 W 1 6 1019.1 - 1.8 - - - - - - -
 
Date/Time
EST
Temp
°C
Wind Pressure Rain since
9am
mm
Weather Cloud Vis
km
Sea
Height
m
Swell
Dir  Spd
kts
Gust
kts
hPa Trend Height
m
Period
s
Dir
25/11:30pm 9.8 SW 6 10 1018.9 - 1.8 - - - - - - -
25/11:00pm 9.9 SW 7 12 1018.8 - 1.8 - - - - - - -
25/10:30pm 8.6 SW 4 10 1018.7 - 1.8 - - - - - - -
25/10:00pm 8.0 CALM 0 0 1018.8 - 1.8 - - - - - - -
25/09:30pm 8.9 SW 1 6 1018.7 - 1.8 - - - - - - -
25/09:00pm 7.8 CALM 0 0 1018.4 - 1.8 - - - - - - -
25/08:30pm 9.5 SW 4 10 1018.3 - 1.8 - - - - - - -
25/08:00pm 8.7 CALM 0 0 1018.2 - 1.8 - - - - - - -
25/07:30pm 9.5 SSW 1 7 1017.9 - 1.6 - - - - - - -
25/07:00pm 9.6 SSW 9 14 1017.5 - 1.2 - - - - - - -
25/06:30pm 9.4 W 1 6 1017.0 - 1.2 - - - - - - -
25/06:00pm 10.2 WSW 7 10 1016.5 - 1.2 - - - - - - -
25/05:30pm 10.7 WSW 4 10 1016.3 - 1.2 - - - - - - -
25/05:00pm 11.7 SW 9 13 1015.8 - 1.2 - - - - - - -
25/04:30pm 11.7 SW 10 15 1015.6 - 1.2 - - - - - - -
25/04:00pm 11.1 SSW 4 14 1015.5 - 1.2 - - - - - - -
25/03:30pm 11.8 SW 8 14 1015.4 - 0.4 - - - - - - -
25/03:00pm 12.1 SW 6 11 1015.3 - 0.4 Recent precip. - - - - - -
25/02:30pm 9.7 SSW 10 17 1015.3 - 0.2 - - - - - - -
25/02:00pm 12.3 SW 10 15 1014.8 - 0.2 - - - - - - -
25/01:30pm 12.1 SW 10 15 1014.7 - 0.2 - - - - - - -
25/01:00pm 12.0 SSW 10 17 1014.7 - 0.2 - - - - - - -
25/12:30pm 11.5 WSW 8 12 1014.9 - 0.2 - - - - - - -
25/12:00pm 9.2 SW 12 19 1015.0 - 0.2 Rain - - - - - -
25/11:30am 12.3 SW 10 18 1014.8 - 0.0 - - - - - - -
25/11:00am 11.9 SW 10 16 1014.8 - 0.0 - - - - - - -
25/10:30am 11.1 SW 9 16 1014.5 - 0.0 - - - - - - -
25/10:00am 10.9 SSW 9 13 1014.3 - 0.0 - - - - - - -
25/09:30am 10.1 SSW 6 9 1014.1 - 0.0 - - - - - - -
25/09:00am 9.4 WNW 3 6 1014.1 - 3.4 - - - - - - -
25/08:30am 7.9 W 2 7 1014.0 - 3.4 - - - - - - -
25/08:00am 7.1 CALM 0 5 1013.8 - 3.4 - - - - - - -
25/07:30am 5.9 NNW 1 5 1013.4 - 2.6 - - - - - - -
25/07:00am 7.0 WSW 1 7 1013.3 - 2.6 - - - - - - -
25/06:30am 6.5 CALM 0 0 1012.9 - 2.4 - - - - - - -
25/06:00am 7.0 WSW 1 5 1012.7 - 2.4 Recent precip. - - - - - -
25/05:30am 7.1 CALM 0 5 1012.3 - 2.4 - - - - - - -
25/05:00am 7.5 W 6 9 1012.3 - 1.8 - - - - - - -
25/04:30am 7.0 W 2 6 1012.2 - 1.8 - - - - - - -
25/04:00am 7.5 W 5 7 1012.1 - 1.8 - - - - - - -
25/03:30am 7.3 CALM 0 0 1012.2 - 1.8 - - - - - - -
25/03:00am 7.5 W 3 6 1012.2 - 1.8 Recent precip. - - - - - -
25/02:30am 6.7 WNW 2 6 1012.4 - 1.6 - - - - - - -
25/02:00am 6.2 CALM 0 0 1012.5 - 1.6 - - - - - - -
25/01:30am 6.9 CALM 0 0 1012.7 - 1.6 - - - - - - -
25/01:00am 6.7 SW 1 6 1013.0 - 1.6 - - - - - - -
25/12:30am 6.0 CALM 0 0 1013.0 - 1.4 - - - - - - -
25/12:00am 6.8 W 2 5 1013.1 - 1.4 - - - - - - -
 
Date/Time
EST
Temp
°C
Wind Pressure Rain since
9am
mm
Weather Cloud Vis
km
Sea
Height
m
Swell
Dir  Spd
kts
Gust
kts
hPa Trend Height
m
Period
s
Dir
24/11:30pm 5.6 CALM 0 6 1013.4 - 1.4 - - - - - - -
24/11:00pm 6.2 CALM 0 0 1013.5 - 1.4 - - - - - - -
24/10:30pm 6.8 CALM 0 5 1013.6 - 1.2 - - - - - - -
24/10:00pm 8.0 WSW 5 10 1013.8 - 1.2 - - - - - - -
24/09:30pm 5.9 CALM 0 4 1013.9 - 0.0 - - - - - - -
24/09:00pm 6.4 CALM 0 0 1014.0 - 0.0 - - - - - - -
24/08:30pm 6.2 CALM 0 0 1014.1 - 0.0 - - - - - - -
24/08:00pm 6.7 CALM 0 0 1014.2 - 0.0 - - - - - - -
24/07:30pm 7.8 CALM 0 0 1014.3 - 0.0 - - - - - - -
24/07:00pm 8.6 CALM 0 0 1014.1 - 0.0 - - - - - - -
24/06:30pm 9.0 SSW 1 5 1013.9 - 0.0 - - - - - - -
24/06:00pm 10.2 SSW 4 7 1013.8 - 0.0 - - - - - - -
24/05:30pm 9.9 SSW 2 7 1013.6 - 0.0 - - - - - - -
24/05:00pm 10.8 SSW 6 9 1013.6 - 0.0 - - - - - - -

Other Formats:

Comma delimited format used in spreadsheet applications
http://www.bom.gov.au/fwo/IDV60701/IDV60701.94898.axf

JavaScript Object Notation format (JSON) in row-major order
http://www.bom.gov.au/fwo/IDV60701/IDV60701.94898.json